sensor_id;sensor_type;location;lat;lon;timestamp;pressure;altitude;pressure_sealevel;temperature;humidity
60820;BME280;46641;48.904;9.126;2023-10-09T00:00:15;99189.00;;;20.76;48.97
60820;BME280;46641;48.904;9.126;2023-10-09T00:05:25;99192.25;;;20.71;48.96
60820;BME280;46641;48.904;9.126;2023-10-09T00:10:28;99192.44;;;20.70;49.12
60820;BME280;46641;48.904;9.126;2023-10-09T00:15:25;99181.56;;;20.65;49.06
60820;BME280;46641;48.904;9.126;2023-10-09T00:20:17;99185.25;;;20.64;49.04
60820;BME280;46641;48.904;9.126;2023-10-09T00:25:20;99178.50;;;20.61;48.98
60820;BME280;46641;48.904;9.126;2023-10-09T00:30:19;99176.41;;;20.57;49.14
60820;BME280;46641;48.904;9.126;2023-10-09T00:35:11;99167.19;;;20.52;48.78
60820;BME280;46641;48.904;9.126;2023-10-09T00:40:20;99168.56;;;20.48;49.21
60820;BME280;46641;48.904;9.126;2023-10-09T00:45:13;99167.91;;;20.46;49.23
60820;BME280;46641;48.904;9.126;2023-10-09T00:50:15;99170.16;;;20.43;49.12
60820;BME280;46641;48.904;9.126;2023-10-09T00:55:07;99167.06;;;20.39;49.43
60820;BME280;46641;48.904;9.126;2023-10-09T01:00:04;99162.78;;;20.38;49.39
60820;BME280;46641;48.904;9.126;2023-10-09T01:05:04;99160.09;;;20.38;49.43
60820;BME280;46641;48.904;9.126;2023-10-09T01:10:09;99141.25;;;20.33;49.36
60820;BME280;46641;48.904;9.126;2023-10-09T01:14:59;99146.78;;;20.31;49.29
60820;BME280;46641;48.904;9.126;2023-10-09T01:19:51;99143.28;;;20.31;49.50
60820;BME280;46641;48.904;9.126;2023-10-09T01:24:46;99144.50;;;20.28;49.40
60820;BME280;46641;48.904;9.126;2023-10-09T01:29:40;99137.72;;;20.26;49.61
60820;BME280;46641;48.904;9.126;2023-10-09T01:34:33;99136.28;;;20.23;49.46
60820;BME280;46641;48.904;9.126;2023-10-09T01:39:26;99127.88;;;20.20;49.41
60820;BME280;46641;48.904;9.126;2023-10-09T01:44:18;99124.56;;;20.18;49.49
60820;BME280;46641;48.904;9.126;2023-10-09T01:49:09;99114.34;;;20.15;49.51
60820;BME280;46641;48.904;9.126;2023-10-09T01:54:07;99113.72;;;20.13;49.86
60820;BME280;46641;48.904;9.126;2023-10-09T01:58:57;99102.47;;;20.11;49.92
60820;BME280;46641;48.904;9.126;2023-10-09T02:03:52;99103.88;;;20.06;49.70
60820;BME280;46641;48.904;9.126;2023-10-09T02:08:44;99100.38;;;20.06;49.59
60820;BME280;46641;48.904;9.126;2023-10-09T02:13:39;99096.50;;;20.02;49.77
60820;BME280;46641;48.904;9.126;2023-10-09T02:18:32;99095.03;;;19.99;49.68
60820;BME280;46641;48.904;9.126;2023-10-09T02:23:22;99096.03;;;19.98;49.96
60820;BME280;46641;48.904;9.126;2023-10-09T02:28:20;99105.03;;;19.97;49.99
60820;BME280;46641;48.904;9.126;2023-10-09T02:33:11;99102.56;;;19.96;49.78
60820;BME280;46641;48.904;9.126;2023-10-09T02:38:01;99100.91;;;19.95;50.06
60820;BME280;46641;48.904;9.126;2023-10-09T02:42:54;99094.78;;;19.94;49.98
60820;BME280;46641;48.904;9.126;2023-10-09T02:47:44;99089.66;;;19.93;50.04
60820;BME280;46641;48.904;9.126;2023-10-09T02:52:38;99091.50;;;19.92;50.06
60820;BME280;46641;48.904;9.126;2023-10-09T02:57:31;99093.53;;;19.90;49.99
60820;BME280;46641;48.904;9.126;2023-10-09T03:02:27;99080.41;;;19.89;50.00
60820;BME280;46641;48.904;9.126;2023-10-09T03:07:21;99077.97;;;19.87;50.17
60820;BME280;46641;48.904;9.126;2023-10-09T03:12:13;99066.09;;;19.83;49.99
60820;BME280;46641;48.904;9.126;2023-10-09T03:17:04;99064.06;;;19.85;50.04
60820;BME280;46641;48.904;9.126;2023-10-09T03:21:55;99059.97;;;19.82;50.23
60820;BME280;46641;48.904;9.126;2023-10-09T03:26:49;99067.31;;;19.80;50.28
60820;BME280;46641;48.904;9.126;2023-10-09T03:31:40;99068.50;;;19.78;50.31
60820;BME280;46641;48.904;9.126;2023-10-09T03:36:33;99063.19;;;19.78;50.18
60820;BME280;46641;48.904;9.126;2023-10-09T03:41:28;99063.19;;;19.78;50.30
60820;BME280;46641;48.904;9.126;2023-10-09T03:46:20;99058.25;;;19.75;50.05
60820;BME280;46641;48.904;9.126;2023-10-09T03:51:11;99059.91;;;19.76;50.23
60820;BME280;46641;48.904;9.126;2023-10-09T03:56:04;99061.72;;;19.75;50.05
60820;BME280;46641;48.904;9.126;2023-10-09T04:01:07;99063.56;;;19.75;49.98
60820;BME280;46641;48.904;9.126;2023-10-09T04:05:57;99067.25;;;19.74;50.42
60820;BME280;46641;48.904;9.126;2023-10-09T04:10:48;99060.31;;;19.73;50.50
60820;BME280;46641;48.904;9.126;2023-10-09T04:15:41;99065.63;;;19.73;50.34
60820;BME280;46641;48.904;9.126;2023-10-09T04:20:32;99057.19;;;19.69;50.53
60820;BME280;46641;48.904;9.126;2023-10-09T04:25:23;99067.19;;;19.67;50.48
60820;BME280;46641;48.904;9.126;2023-10-09T04:30:16;99072.50;;;19.67;50.52
60820;BME280;46641;48.904;9.126;2023-10-09T04:35:07;99071.06;;;19.65;50.37
60820;BME280;46641;48.904;9.126;2023-10-09T04:40:09;99062.28;;;19.64;50.65
60820;BME280;46641;48.904;9.126;2023-10-09T04:45:07;99065.91;;;19.63;50.61
60820;BME280;46641;48.904;9.126;2023-10-09T04:50:07;99052.00;;;19.61;50.45
60820;BME280;46641;48.904;9.126;2023-10-09T04:55:16;99064.63;;;19.59;50.63
60820;BME280;46641;48.904;9.126;2023-10-09T05:00:16;99063.22;;;19.56;50.73
60820;BME280;46641;48.904;9.126;2023-10-09T05:05:32;99059.72;;;19.56;50.45
60820;BME280;46641;48.904;9.126;2023-10-09T05:10:25;99070.34;;;19.56;50.55
60820;BME280;46641;48.904;9.126;2023-10-09T05:15:16;99064.19;;;19.55;50.60
60820;BME280;46641;48.904;9.126;2023-10-09T05:20:07;99062.06;;;19.44;50.90
60820;BME280;46641;48.904;9.126;2023-10-09T05:25:15;99068.97;;;19.38;51.15
60820;BME280;46641;48.904;9.126;2023-10-09T05:30:20;99061.19;;;19.37;50.83
60820;BME280;46641;48.904;9.126;2023-10-09T05:35:17;99064.47;;;19.39;51.00
60820;BME280;46641;48.904;9.126;2023-10-09T05:40:10;99068.75;;;19.40;51.07
60820;BME280;46641;48.904;9.126;2023-10-09T05:50:23;99076.72;;;19.40;51.04
60820;BME280;46641;48.904;9.126;2023-10-09T05:55:14;99067.13;;;19.39;50.90
60820;BME280;46641;48.904;9.126;2023-10-09T06:00:16;99068.16;;;19.38;51.00
60820;BME280;46641;48.904;9.126;2023-10-09T06:05:25;99074.47;;;19.37;50.96
60820;BME280;46641;48.904;9.126;2023-10-09T06:10:30;99086.91;;;19.36;51.16
60820;BME280;46641;48.904;9.126;2023-10-09T06:15:36;99089.75;;;19.35;50.82
60820;BME280;46641;48.904;9.126;2023-10-09T06:20:32;99087.09;;;19.35;50.69
60820;BME280;46641;48.904;9.126;2023-10-09T06:25:43;99088.13;;;19.34;50.95
60820;BME280;46641;48.904;9.126;2023-10-09T06:30:41;99102.00;;;19.36;51.10
60820;BME280;46641;48.904;9.126;2023-10-09T06:35:36;99096.09;;;19.34;50.78
60820;BME280;46641;48.904;9.126;2023-10-09T06:45:26;99098.75;;;19.34;51.06
60820;BME280;46641;48.904;9.126;2023-10-09T06:50:36;99109.97;;;19.36;51.20
60820;BME280;46641;48.904;9.126;2023-10-09T06:55:45;99114.66;;;19.34;50.87
60820;BME280;46641;48.904;9.126;2023-10-09T07:00:39;99112.03;;;19.34;50.82
60820;BME280;46641;48.904;9.126;2023-10-09T07:06:08;99107.31;;;19.36;51.07
60820;BME280;46641;48.904;9.126;2023-10-09T07:11:14;99106.34;;;19.37;51.00
60820;BME280;46641;48.904;9.126;2023-10-09T07:16:33;99102.00;;;19.36;51.08
60820;BME280;46641;48.904;9.126;2023-10-09T07:21:29;99102.66;;;19.38;51.02
60820;BME280;46641;48.904;9.126;2023-10-09T07:26:20;99107.28;;;18.63;54.29
60820;BME280;46641;48.904;9.126;2023-10-09T07:31:19;99106.91;;;18.96;53.47
60820;BME280;46641;48.904;9.126;2023-10-09T07:36:17;99117.28;;;19.12;52.92
60820;BME280;46641;48.904;9.126;2023-10-09T07:41:19;99107.78;;;19.18;52.58
60820;BME280;46641;48.904;9.126;2023-10-09T07:46:11;99110.03;;;19.21;52.93
60820;BME280;46641;48.904;9.126;2023-10-09T07:51:21;99108.22;;;19.22;52.55
60820;BME280;46641;48.904;9.126;2023-10-09T07:56:13;99100.25;;;19.22;53.07
60820;BME280;46641;48.904;9.126;2023-10-09T08:01:10;99111.78;;;18.78;54.50
60820;BME280;46641;48.904;9.126;2023-10-09T08:06:13;99116.91;;;19.15;53.28
60820;BME280;46641;48.904;9.126;2023-10-09T08:11:31;99121.63;;;19.35;52.41
60820;BME280;46641;48.904;9.126;2023-10-09T08:16:30;99127.88;;;19.49;51.97
60820;BME280;46641;48.904;9.126;2023-10-09T08:21:26;99120.97;;;19.54;51.82
60820;BME280;46641;48.904;9.126;2023-10-09T08:26:36;99130.59;;;19.55;51.83
60820;BME280;46641;48.904;9.126;2023-10-09T08:31:37;99134.06;;;19.56;51.81
60820;BME280;46641;48.904;9.126;2023-10-09T08:36:37;99142.47;;;19.59;51.67
60820;BME280;46641;48.904;9.126;2023-10-09T08:41:27;99136.16;;;19.60;51.68
60820;BME280;46641;48.904;9.126;2023-10-09T08:46:24;99144.75;;;19.62;51.68
60820;BME280;46641;48.904;9.126;2023-10-09T08:51:17;99140.75;;;19.67;51.71
60820;BME280;46641;48.904;9.126;2023-10-09T08:56:10;99138.69;;;19.69;51.86
60820;BME280;46641;48.904;9.126;2023-10-09T09:01:00;99127.31;;;19.75;51.92
60820;BME280;46641;48.904;9.126;2023-10-09T09:06:01;99145.78;;;19.83;52.01
60820;BME280;46641;48.904;9.126;2023-10-09T09:11:08;99153.81;;;19.90;51.16
60820;BME280;46641;48.904;9.126;2023-10-09T09:16:02;99169.56;;;19.91;51.32
60820;BME280;46641;48.904;9.126;2023-10-09T09:20:52;99165.25;;;19.90;51.45
60820;BME280;46641;48.904;9.126;2023-10-09T09:25:45;99153.81;;;19.90;51.46
60820;BME280;46641;48.904;9.126;2023-10-09T09:30:38;99153.06;;;19.96;52.47
60820;BME280;46641;48.904;9.126;2023-10-09T09:35:30;99157.84;;;20.07;52.19
60820;BME280;46641;48.904;9.126;2023-10-09T09:40:21;99155.59;;;20.11;51.60
60820;BME280;46641;48.904;9.126;2023-10-09T09:45:20;99158.09;;;20.12;51.29
60820;BME280;46641;48.904;9.126;2023-10-09T09:50:13;99159.78;;;20.20;51.37
60820;BME280;46641;48.904;9.126;2023-10-09T09:55:12;99151.84;;;20.26;51.51
60820;BME280;46641;48.904;9.126;2023-10-09T10:00:13;99161.69;;;20.33;51.41
60820;BME280;46641;48.904;9.126;2023-10-09T10:05:19;99163.59;;;20.39;50.99
60820;BME280;46641;48.904;9.126;2023-10-09T10:31:11;99139.19;;;20.63;50.60
60820;BME280;46641;48.904;9.126;2023-10-09T10:36:03;99130.00;;;20.66;50.38
60820;BME280;46641;48.904;9.126;2023-10-09T10:40:56;99129.84;;;20.74;50.29
60820;BME280;46641;48.904;9.126;2023-10-09T10:45:50;99136.03;;;20.81;50.34
60820;BME280;46641;48.904;9.126;2023-10-09T10:50:41;99141.56;;;20.86;50.19
60820;BME280;46641;48.904;9.126;2023-10-09T10:55:35;99139.94;;;20.92;50.44
60820;BME280;46641;48.904;9.126;2023-10-09T11:00:27;99126.06;;;20.96;52.99
60820;BME280;46641;48.904;9.126;2023-10-09T11:05:36;99135.31;;;21.07;52.21
60820;BME280;46641;48.904;9.126;2023-10-09T11:10:29;99153.53;;;21.10;51.46
60820;BME280;46641;48.904;9.126;2023-10-09T11:15:33;99152.13;;;21.21;50.16
60820;BME280;46641;48.904;9.126;2023-10-09T11:20:43;99150.81;;;21.52;49.64
60820;BME280;46641;48.904;9.126;2023-10-09T11:25:52;99145.28;;;21.66;48.79
60820;BME280;46641;48.904;9.126;2023-10-09T11:30:43;99141.41;;;21.76;48.74
60820;BME280;46641;48.904;9.126;2023-10-09T11:35:36;99106.97;;;21.81;48.83
60820;BME280;46641;48.904;9.126;2023-10-09T11:40:28;99113.94;;;21.82;49.31
60820;BME280;46641;48.904;9.126;2023-10-09T11:45:24;99106.53;;;21.84;49.32
60820;BME280;46641;48.904;9.126;2023-10-09T11:50:18;99110.66;;;21.86;49.36
60820;BME280;46641;48.904;9.126;2023-10-09T11:55:09;99102.47;;;21.88;49.45
60820;BME280;46641;48.904;9.126;2023-10-09T12:00:07;99097.94;;;21.88;49.34
60820;BME280;46641;48.904;9.126;2023-10-09T12:05:17;99102.47;;;21.94;48.46
60820;BME280;46641;48.904;9.126;2023-10-09T12:10:11;99103.69;;;21.99;47.96
60820;BME280;46641;48.904;9.126;2023-10-09T12:15:04;99098.56;;;22.04;48.66
60820;BME280;46641;48.904;9.126;2023-10-09T12:20:05;99083.97;;;22.06;48.59
60820;BME280;46641;48.904;9.126;2023-10-09T12:25:09;99066.75;;;22.09;48.60
60820;BME280;46641;48.904;9.126;2023-10-09T12:30:05;99039.66;;;22.12;48.71
60820;BME280;46641;48.904;9.126;2023-10-09T12:35:02;99058.56;;;22.17;48.20
60820;BME280;46641;48.904;9.126;2023-10-09T12:40:13;99063.25;;;22.22;48.16
60820;BME280;46641;48.904;9.126;2023-10-09T12:45:15;99060.81;;;22.27;47.85
60820;BME280;46641;48.904;9.126;2023-10-09T12:50:11;99060.78;;;22.33;47.16
60820;BME280;46641;48.904;9.126;2023-10-09T12:55:10;99055.63;;;22.38;47.13
60820;BME280;46641;48.904;9.126;2023-10-09T13:00:12;99043.53;;;22.43;48.02
60820;BME280;46641;48.904;9.126;2023-10-09T13:05:02;99033.44;;;22.45;48.16
60820;BME280;46641;48.904;9.126;2023-10-09T13:09:55;99028.50;;;22.48;48.13
60820;BME280;46641;48.904;9.126;2023-10-09T13:14:59;99024.19;;;22.54;48.40
60820;BME280;46641;48.904;9.126;2023-10-09T13:19:49;99024.38;;;22.59;47.76
60820;BME280;46641;48.904;9.126;2023-10-09T13:24:40;99035.81;;;22.66;46.79
60820;BME280;46641;48.904;9.126;2023-10-09T13:29:31;99029.41;;;22.74;47.22
60820;BME280;46641;48.904;9.126;2023-10-09T13:34:24;99025.06;;;22.79;46.72
60820;BME280;46641;48.904;9.126;2023-10-09T13:39:18;99022.56;;;22.84;46.89
60820;BME280;46641;48.904;9.126;2023-10-09T13:44:15;99021.72;;;22.91;46.03
60820;BME280;46641;48.904;9.126;2023-10-09T13:49:09;99015.56;;;22.97;44.90
60820;BME280;46641;48.904;9.126;2023-10-09T13:54:02;99012.84;;;23.03;45.65
60820;BME280;46641;48.904;9.126;2023-10-09T13:58:57;99019.19;;;23.09;45.42
60820;BME280;46641;48.904;9.126;2023-10-09T14:03:47;99009.50;;;23.15;43.95
60820;BME280;46641;48.904;9.126;2023-10-09T14:08:40;99000.22;;;23.17;44.30
60820;BME280;46641;48.904;9.126;2023-10-09T14:13:32;99005.34;;;23.19;46.78
60820;BME280;46641;48.904;9.126;2023-10-09T14:18:23;98993.41;;;23.21;45.01
60820;BME280;46641;48.904;9.126;2023-10-09T14:23:14;98992.75;;;23.26;45.41
60820;BME280;46641;48.904;9.126;2023-10-09T14:28:10;98982.00;;;23.32;44.98
60820;BME280;46641;48.904;9.126;2023-10-09T14:33:00;98989.16;;;23.39;44.25
60820;BME280;46641;48.904;9.126;2023-10-09T14:37:53;98979.50;;;23.38;38.42
60820;BME280;46641;48.904;9.126;2023-10-09T14:42:47;98975.78;;;23.39;37.43
60820;BME280;46641;48.904;9.126;2023-10-09T14:47:40;98988.09;;;23.40;36.15
60820;BME280;46641;48.904;9.126;2023-10-09T14:52:30;98996.25;;;23.51;38.22
60820;BME280;46641;48.904;9.126;2023-10-09T14:57:20;98986.84;;;23.67;39.46
60820;BME280;46641;48.904;9.126;2023-10-09T15:02:11;98979.47;;;23.69;39.63
60820;BME280;46641;48.904;9.126;2023-10-09T15:07:03;98987.88;;;23.66;40.78
60820;BME280;46641;48.904;9.126;2023-10-09T15:11:56;98974.53;;;23.66;41.26
60820;BME280;46641;48.904;9.126;2023-10-09T15:16:48;98971.25;;;23.64;41.72
60820;BME280;46641;48.904;9.126;2023-10-09T15:21:39;98970.19;;;23.65;42.31
60820;BME280;46641;48.904;9.126;2023-10-09T15:26:35;98973.69;;;23.66;42.80
60820;BME280;46641;48.904;9.126;2023-10-09T15:31:25;98968.94;;;23.68;43.09
60820;BME280;46641;48.904;9.126;2023-10-09T15:36:17;98969.78;;;23.68;42.92
60820;BME280;46641;48.904;9.126;2023-10-09T15:41:10;98964.44;;;23.68;43.15
60820;BME280;46641;48.904;9.126;2023-10-09T15:46:01;98967.31;;;23.67;41.74
60820;BME280;46641;48.904;9.126;2023-10-09T15:50:52;98979.53;;;23.81;42.02
60820;BME280;46641;48.904;9.126;2023-10-09T15:55:44;98985.84;;;23.87;42.01
60820;BME280;46641;48.904;9.126;2023-10-09T16:00:34;98981.50;;;23.92;42.28
60820;BME280;46641;48.904;9.126;2023-10-09T16:05:25;98996.25;;;23.95;42.20
60820;BME280;46641;48.904;9.126;2023-10-09T16:10:21;98985.19;;;23.91;42.85
60820;BME280;46641;48.904;9.126;2023-10-09T16:15:12;98984.22;;;23.86;42.89
60820;BME280;46641;48.904;9.126;2023-10-09T16:20:05;98982.56;;;23.85;43.34
60820;BME280;46641;48.904;9.126;2023-10-09T16:25:03;98979.53;;;23.81;43.26
60820;BME280;46641;48.904;9.126;2023-10-09T16:29:59;98993.72;;;23.82;43.08
60820;BME280;46641;48.904;9.126;2023-10-09T16:34:55;98994.31;;;23.84;42.81
60820;BME280;46641;48.904;9.126;2023-10-09T16:39:45;98992.69;;;23.83;42.79
60820;BME280;46641;48.904;9.126;2023-10-09T16:44:36;98991.84;;;23.82;43.61
60820;BME280;46641;48.904;9.126;2023-10-09T16:49:27;98994.75;;;23.81;43.32
60820;BME280;46641;48.904;9.126;2023-10-09T16:54:17;98995.66;;;23.24;44.15
60820;BME280;46641;48.904;9.126;2023-10-09T16:59:11;98980.59;;;23.55;43.48
60820;BME280;46641;48.904;9.126;2023-10-09T17:04:04;98985.66;;;23.63;43.46
60820;BME280;46641;48.904;9.126;2023-10-09T17:08:55;98977.81;;;23.68;43.03
60820;BME280;46641;48.904;9.126;2023-10-09T17:13:46;98992.41;;;23.66;43.35
60820;BME280;46641;48.904;9.126;2023-10-09T17:18:39;98997.38;;;23.62;43.36
60820;BME280;46641;48.904;9.126;2023-10-09T17:23:29;99014.44;;;23.61;43.08
60820;BME280;46641;48.904;9.126;2023-10-09T17:28:23;99007.91;;;23.57;43.17
60820;BME280;46641;48.904;9.126;2023-10-09T17:33:13;99012.66;;;23.55;43.12
60820;BME280;46641;48.904;9.126;2023-10-09T17:38:03;99004.06;;;23.53;43.78
60820;BME280;46641;48.904;9.126;2023-10-09T17:42:54;98996.69;;;23.48;42.83
60820;BME280;46641;48.904;9.126;2023-10-09T17:47:45;99008.41;;;23.47;42.93
60820;BME280;46641;48.904;9.126;2023-10-09T17:52:36;99018.72;;;23.44;43.32
60820;BME280;46641;48.904;9.126;2023-10-09T17:57:27;99011.94;;;23.41;43.70
60820;BME280;46641;48.904;9.126;2023-10-09T18:02:18;98999.03;;;23.38;43.73
60820;BME280;46641;48.904;9.126;2023-10-09T18:07:08;99007.47;;;23.35;43.49
60820;BME280;46641;48.904;9.126;2023-10-09T18:12:03;99013.25;;;23.32;43.98
60820;BME280;46641;48.904;9.126;2023-10-09T18:16:54;99006.91;;;23.26;44.26
60820;BME280;46641;48.904;9.126;2023-10-09T18:21:45;98995.03;;;23.22;44.09
60820;BME280;46641;48.904;9.126;2023-10-09T18:26:36;99000.22;;;23.17;44.07
60820;BME280;46641;48.904;9.126;2023-10-09T18:31:26;98985.06;;;23.11;44.46
60820;BME280;46641;48.904;9.126;2023-10-09T18:36:16;98996.19;;;23.08;44.28
60820;BME280;46641;48.904;9.126;2023-10-09T18:41:08;98998.69;;;23.03;44.59
60820;BME280;46641;48.904;9.126;2023-10-09T18:46:04;98988.84;;;22.97;44.46
60820;BME280;46641;48.904;9.126;2023-10-09T18:50:55;98989.47;;;22.92;44.75
60820;BME280;46641;48.904;9.126;2023-10-09T18:55:46;98993.41;;;22.90;44.62
60820;BME280;46641;48.904;9.126;2023-10-09T19:00:41;99001.81;;;22.86;44.29
60820;BME280;46641;48.904;9.126;2023-10-09T19:05:43;98997.16;;;22.82;44.13
60820;BME280;46641;48.904;9.126;2023-10-09T19:10:38;99002.69;;;22.80;44.76
60820;BME280;46641;48.904;9.126;2023-10-09T19:15:28;99004.16;;;22.76;44.91
60820;BME280;46641;48.904;9.126;2023-10-09T19:20:19;99011.53;;;22.74;44.55
60820;BME280;46641;48.904;9.126;2023-10-09T19:25:10;99006.63;;;22.71;44.60
60820;BME280;46641;48.904;9.126;2023-10-09T19:30:07;99015.06;;;22.68;44.59
60820;BME280;46641;48.904;9.126;2023-10-09T19:35:02;99011.81;;;22.66;44.78
60820;BME280;46641;48.904;9.126;2023-10-09T19:39:53;99018.38;;;22.63;45.21
60820;BME280;46641;48.904;9.126;2023-10-09T19:44:43;99022.28;;;22.61;44.85
60820;BME280;46641;48.904;9.126;2023-10-09T19:49:33;99017.38;;;22.58;45.37
60820;BME280;46641;48.904;9.126;2023-10-09T19:54:24;99029.28;;;22.55;45.15
60820;BME280;46641;48.904;9.126;2023-10-09T19:59:14;99033.81;;;22.55;45.05
60820;BME280;46641;48.904;9.126;2023-10-09T20:04:06;99039.56;;;22.52;45.46
60820;BME280;46641;48.904;9.126;2023-10-09T20:08:56;99034.66;;;22.49;45.40
60820;BME280;46641;48.904;9.126;2023-10-09T20:13:46;99035.09;;;22.46;45.39
60820;BME280;46641;48.904;9.126;2023-10-09T20:18:39;99039.81;;;22.44;45.54
60820;BME280;46641;48.904;9.126;2023-10-09T20:23:32;99030.59;;;22.39;45.64
60820;BME280;46641;48.904;9.126;2023-10-09T20:28:23;99029.16;;;22.37;45.35
60820;BME280;46641;48.904;9.126;2023-10-09T20:33:15;99036.78;;;22.33;45.44
60820;BME280;46641;48.904;9.126;2023-10-09T20:38:06;99034.53;;;22.30;45.56
60820;BME280;46641;48.904;9.126;2023-10-09T20:42:57;99033.91;;;22.28;45.83
60820;BME280;46641;48.904;9.126;2023-10-09T20:47:49;99046.03;;;22.24;45.71
60820;BME280;46641;48.904;9.126;2023-10-09T20:52:46;99048.09;;;22.22;45.48
60820;BME280;46641;48.904;9.126;2023-10-09T20:57:36;99056.72;;;22.17;45.81
60820;BME280;46641;48.904;9.126;2023-10-09T21:02:26;99061.63;;;22.14;45.85
60820;BME280;46641;48.904;9.126;2023-10-09T21:07:17;99056.72;;;22.11;46.11
60820;BME280;46641;48.904;9.126;2023-10-09T21:12:08;99066.75;;;22.09;45.98
60820;BME280;46641;48.904;9.126;2023-10-09T21:16:58;99066.16;;;22.07;46.05
60820;BME280;46641;48.904;9.126;2023-10-09T21:21:48;99063.06;;;22.03;45.84
60820;BME280;46641;48.904;9.126;2023-10-09T21:26:39;99074.97;;;22.01;46.27
60820;BME280;46641;48.904;9.126;2023-10-09T21:31:29;99074.56;;;21.97;46.17
60820;BME280;46641;48.904;9.126;2023-10-09T21:36:20;99077.44;;;21.96;46.02
60820;BME280;46641;48.904;9.126;2023-10-09T21:41:14;99085.66;;;21.94;46.17
60820;BME280;46641;48.904;9.126;2023-10-09T21:46:07;99092.63;;;21.88;45.97
60820;BME280;46641;48.904;9.126;2023-10-09T21:50:59;99087.28;;;21.88;46.17
60820;BME280;46641;48.904;9.126;2023-10-09T21:55:50;99097.53;;;21.85;46.32
60820;BME280;46641;48.904;9.126;2023-10-09T22:00:40;99100.81;;;21.80;46.25
60820;BME280;46641;48.904;9.126;2023-10-09T22:05:37;99106.53;;;21.77;46.40
60820;BME280;46641;48.904;9.126;2023-10-09T22:10:31;99105.13;;;21.75;46.47
60820;BME280;46641;48.904;9.126;2023-10-09T22:15:21;99103.06;;;21.70;46.17
60820;BME280;46641;48.904;9.126;2023-10-09T22:20:12;99106.53;;;21.70;46.02
60820;BME280;46641;48.904;9.126;2023-10-09T22:25:08;99098.16;;;21.67;46.46
60820;BME280;46641;48.904;9.126;2023-10-09T22:29:58;99100.22;;;21.65;46.54
60820;BME280;46641;48.904;9.126;2023-10-09T22:34:55;99103.69;;;21.59;46.56
60820;BME280;46641;48.904;9.126;2023-10-09T22:39:50;99105.94;;;21.55;46.53
60820;BME280;46641;48.904;9.126;2023-10-09T22:44:41;99110.66;;;21.53;46.51
60820;BME280;46641;48.904;9.126;2023-10-09T22:49:34;99105.94;;;21.49;46.65
60820;BME280;46641;48.904;9.126;2023-10-09T22:54:24;99108.78;;;21.47;46.57
60820;BME280;46641;48.904;9.126;2023-10-09T22:59:23;99117.19;;;21.44;46.66
60820;BME280;46641;48.904;9.126;2023-10-09T23:04:16;99114.75;;;21.42;46.61
60820;BME280;46641;48.904;9.126;2023-10-09T23:09:06;99118.81;;;21.38;46.72
60820;BME280;46641;48.904;9.126;2023-10-09T23:14:08;99113.06;;;21.35;46.95
60820;BME280;46641;48.904;9.126;2023-10-09T23:19:21;99111.63;;;21.32;46.89
60820;BME280;46641;48.904;9.126;2023-10-09T23:24:29;99101.56;;;21.28;46.91
60820;BME280;46641;48.904;9.126;2023-10-09T23:29:21;99106.47;;;21.24;46.90
60820;BME280;46641;48.904;9.126;2023-10-09T23:34:19;99107.91;;;21.27;46.94
60820;BME280;46641;48.904;9.126;2023-10-09T23:39:10;99094.78;;;21.25;46.83
60820;BME280;46641;48.904;9.126;2023-10-09T23:44:02;99098.69;;;21.22;46.99
60820;BME280;46641;48.904;9.126;2023-10-09T23:48:57;99098.88;;;21.21;46.97
60820;BME280;46641;48.904;9.126;2023-10-09T23:53:49;99102.97;;;21.17;46.92
60820;BME280;46641;48.904;9.126;2023-10-09T23:58:51;99111.38;;;21.14;47.04
